首页
METAR-TAF:

METAR-TAF

机场 :

Toussus-le-Noble, 法国

纬度: 48-46N, 经度: 002-06E, 海拔: 164米

当前天气观测

该预报发布于44分钟前的10:30 UTC
风速8节,风向东北,在之间变化
温度 28°C
湿度 62%
气压 1023 hPa
能见度10公里或以上
1500米以下无云,无积雨云

METAR: LFPN 271030Z AUTO 04008KT 350V090 CAVOK 28/20 Q1023 NOSIG

时间: 13:14 (11:14 UTC)

预报

该预报发布于3小时和14分钟前的08:00 UTC
预报有效从27日的 09点(UTC)到 27日的 18点(UTC)
风速10节,风向东北
能见度10公里或以上
1500米以下无云,无积雨云

TAF: LFPN 270800Z 2709/2718 05010KT CAVOK

超过4000个机场的气象观测和天气预报(METAR&TAF报告)。

可查询的气象台以黄色和红色小点在地图上表示。

将鼠标移到小点上方,可查看气象台名称。

然后点击查看天气观测和预报。

如需切换地图:点击带黑十字的绿色按钮放大地图;点击带横线的绿色按钮缩小地图;或者点击绿色箭头查看邻近地区的地图。


METAR-TAF: